Airfield :
LOGIN :

Register | Disclaimer

   EN    FR    IT 

 










Legend :    VFR   Marginal VFR   IFR   Intensive IFR   Very Intensive IFR
Visi :
Ceiling :
>= 8 km
>= 3000ft
5 to 8 km
1000 to 3000 ft
1500m to 5 km
500 to 1000 ft
800 to 1500m
200 to 500 ft
< 800m
< 200 ft
Symbols :   Thunderstorms  Fog  Heavy snow  Heavy precipitations  Wind > 20 kt
SIGMETs :     Misc.  Thunderstorms  Icing  Turbulence  Mountain Waves  Volcanic Ashes







- Airport Elevation : 94 ft
- IATA code : QLT


LIRL - Latina Casale (military)

EXPIRED METARs :
  • 231755Z 33001KT 9999 FEW030 15/10 Q1019 RMK FEW MON INVIS VAR RAPID VIS MIN 9999 WIND THR12 00000KT WIND THR30 33001KT BLU
  • 231655Z 19005KT 9999 FEW020 15/09 Q1018 RMK SCT SCT200 MON LIB NC VIS MIN 9999 WIND THR12 18004KT WIND THR30 20004KT BLU

TAF TAF LIRL
Valid from the 23 at 15:00 until the 24 at 00:00 UTC


231400Z 2315/2324 19012KT 9999 SCT025
No reported NOTAMs for that airfield.



MET'MAP, your aeronautical weather chart ! - Copyright ORBIFLY December 2007 - Disclaimer

ORBIFLY MET'MAP TEAM :

Programming & Development : Alexandra Zaïnal
Concept & Development : Baudouin d'Aumeries
Co-Development & Prog : Marc-Olivier Méhu
Technical & hardware support : Manuel Goepfert

Contact : metmap@orbifly.com




SOURCES & CREDITS :

   NOAA